sensor_id;sensor_type;location;lat;lon;timestamp;P1;durP1;ratioP1;P2;durP2;ratioP2
79574;SDS011;69044;48.198;11.468;2023-12-04T00:00:21;7.78;;;3.65;;
79574;SDS011;69044;48.198;11.468;2023-12-04T00:02:49;8.90;;;4.18;;
79574;SDS011;69044;48.198;11.468;2023-12-04T00:05:16;9.27;;;4.55;;
79574;SDS011;69044;48.198;11.468;2023-12-04T00:07:44;9.30;;;4.20;;
79574;SDS011;69044;48.198;11.468;2023-12-04T00:10:11;8.57;;;3.70;;
79574;SDS011;69044;48.198;11.468;2023-12-04T00:12:38;6.88;;;3.42;;
79574;SDS011;69044;48.198;11.468;2023-12-04T00:15:05;7.90;;;3.83;;
79574;SDS011;69044;48.198;11.468;2023-12-04T00:17:34;9.60;;;4.20;;
79574;SDS011;69044;48.198;11.468;2023-12-04T00:20:07;8.15;;;4.25;;
79574;SDS011;69044;48.198;11.468;2023-12-04T00:22:35;9.02;;;4.00;;
79574;SDS011;69044;48.198;11.468;2023-12-04T00:25:02;7.32;;;4.32;;
79574;SDS011;69044;48.198;11.468;2023-12-04T00:27:30;6.70;;;3.83;;
79574;SDS011;69044;48.198;11.468;2023-12-04T00:29:57;10.25;;;4.10;;
79574;SDS011;69044;48.198;11.468;2023-12-04T00:32:24;9.93;;;4.35;;
79574;SDS011;69044;48.198;11.468;2023-12-04T00:34:51;9.02;;;4.63;;
79574;SDS011;69044;48.198;11.468;2023-12-04T00:37:20;11.00;;;4.63;;
79574;SDS011;69044;48.198;11.468;2023-12-04T00:39:48;8.43;;;3.92;;
79574;SDS011;69044;48.198;11.468;2023-12-04T00:42:15;9.85;;;4.18;;
79574;SDS011;69044;48.198;11.468;2023-12-04T00:44:42;6.35;;;3.88;;
79574;SDS011;69044;48.198;11.468;2023-12-04T00:47:09;8.13;;;3.90;;
79574;SDS011;69044;48.198;11.468;2023-12-04T00:49:36;8.55;;;3.70;;
79574;SDS011;69044;48.198;11.468;2023-12-04T00:52:04;9.32;;;4.20;;
79574;SDS011;69044;48.198;11.468;2023-12-04T00:54:32;6.00;;;4.03;;
79574;SDS011;69044;48.198;11.468;2023-12-04T00:56:59;7.50;;;3.88;;
79574;SDS011;69044;48.198;11.468;2023-12-04T00:59:26;8.68;;;4.47;;
79574;SDS011;69044;48.198;11.468;2023-12-04T01:01:53;6.93;;;3.47;;
79574;SDS011;69044;48.198;11.468;2023-12-04T01:04:20;7.72;;;3.63;;
79574;SDS011;69044;48.198;11.468;2023-12-04T01:06:48;11.52;;;3.60;;
79574;SDS011;69044;48.198;11.468;2023-12-04T01:09:15;9.48;;;3.78;;
79574;SDS011;69044;48.198;11.468;2023-12-04T01:11:43;6.22;;;3.97;;
79574;SDS011;69044;48.198;11.468;2023-12-04T01:14:10;9.75;;;4.20;;
79574;SDS011;69044;48.198;11.468;2023-12-04T01:16:38;8.82;;;3.85;;
79574;SDS011;69044;48.198;11.468;2023-12-04T01:19:05;9.27;;;3.80;;
79574;SDS011;69044;48.198;11.468;2023-12-04T01:21:32;9.57;;;4.53;;
79574;SDS011;69044;48.198;11.468;2023-12-04T01:23:59;5.57;;;3.08;;
79574;SDS011;69044;48.198;11.468;2023-12-04T01:26:26;10.35;;;3.67;;
79574;SDS011;69044;48.198;11.468;2023-12-04T01:28:55;6.07;;;3.00;;
79574;SDS011;69044;48.198;11.468;2023-12-04T01:31:22;8.10;;;3.28;;
79574;SDS011;69044;48.198;11.468;2023-12-04T01:33:49;7.88;;;2.75;;
79574;SDS011;69044;48.198;11.468;2023-12-04T01:36:16;7.18;;;3.40;;
79574;SDS011;69044;48.198;11.468;2023-12-04T01:38:43;9.98;;;4.15;;
79574;SDS011;69044;48.198;11.468;2023-12-04T01:41:10;7.45;;;3.78;;
79574;SDS011;69044;48.198;11.468;2023-12-04T01:43:37;6.68;;;3.08;;
79574;SDS011;69044;48.198;11.468;2023-12-04T01:46:06;9.63;;;4.30;;
79574;SDS011;69044;48.198;11.468;2023-12-04T01:48:33;6.88;;;3.20;;
79574;SDS011;69044;48.198;11.468;2023-12-04T01:51:01;6.63;;;3.33;;
79574;SDS011;69044;48.198;11.468;2023-12-04T01:53:31;8.77;;;3.70;;
79574;SDS011;69044;48.198;11.468;2023-12-04T01:55:59;8.20;;;4.10;;
79574;SDS011;69044;48.198;11.468;2023-12-04T01:58:26;5.82;;;3.05;;
79574;SDS011;69044;48.198;11.468;2023-12-04T02:00:53;6.43;;;3.33;;
79574;SDS011;69044;48.198;11.468;2023-12-04T02:03:21;8.57;;;4.15;;
79574;SDS011;69044;48.198;11.468;2023-12-04T02:05:49;6.03;;;3.15;;
79574;SDS011;69044;48.198;11.468;2023-12-04T02:08:18;9.65;;;4.30;;
79574;SDS011;69044;48.198;11.468;2023-12-04T02:10:45;11.52;;;4.63;;
79574;SDS011;69044;48.198;11.468;2023-12-04T02:13:12;6.68;;;3.42;;
79574;SDS011;69044;48.198;11.468;2023-12-04T02:15:40;14.10;;;4.60;;
79574;SDS011;69044;48.198;11.468;2023-12-04T02:18:07;9.45;;;4.07;;
79574;SDS011;69044;48.198;11.468;2023-12-04T02:20:36;8.07;;;3.75;;
79574;SDS011;69044;48.198;11.468;2023-12-04T02:23:03;8.00;;;4.45;;
79574;SDS011;69044;48.198;11.468;2023-12-04T02:25:31;7.60;;;3.83;;
79574;SDS011;69044;48.198;11.468;2023-12-04T02:27:59;9.65;;;3.90;;
79574;SDS011;69044;48.198;11.468;2023-12-04T02:30:28;10.95;;;5.07;;
79574;SDS011;69044;48.198;11.468;2023-12-04T02:32:57;10.57;;;4.60;;
79574;SDS011;69044;48.198;11.468;2023-12-04T02:35:26;7.95;;;4.00;;
79574;SDS011;69044;48.198;11.468;2023-12-04T02:37:54;10.23;;;4.80;;
79574;SDS011;69044;48.198;11.468;2023-12-04T02:40:23;9.27;;;4.45;;
79574;SDS011;69044;48.198;11.468;2023-12-04T02:42:54;8.30;;;4.10;;
79574;SDS011;69044;48.198;11.468;2023-12-04T02:45:22;7.50;;;3.45;;
79574;SDS011;69044;48.198;11.468;2023-12-04T02:47:49;7.18;;;3.65;;
79574;SDS011;69044;48.198;11.468;2023-12-04T02:50:16;11.20;;;4.45;;
79574;SDS011;69044;48.198;11.468;2023-12-04T02:52:43;7.25;;;4.28;;
79574;SDS011;69044;48.198;11.468;2023-12-04T02:55:10;8.07;;;4.28;;
79574;SDS011;69044;48.198;11.468;2023-12-04T02:57:37;10.20;;;4.38;;
79574;SDS011;69044;48.198;11.468;2023-12-04T03:00:06;11.85;;;4.68;;
79574;SDS011;69044;48.198;11.468;2023-12-04T03:02:35;9.38;;;4.25;;
79574;SDS011;69044;48.198;11.468;2023-12-04T03:05:02;8.57;;;4.28;;
79574;SDS011;69044;48.198;11.468;2023-12-04T03:07:30;11.63;;;4.50;;
79574;SDS011;69044;48.198;11.468;2023-12-04T03:09:57;10.93;;;4.82;;
79574;SDS011;69044;48.198;11.468;2023-12-04T03:12:24;9.23;;;4.03;;
79574;SDS011;69044;48.198;11.468;2023-12-04T03:14:51;10.00;;;3.95;;
79574;SDS011;69044;48.198;11.468;2023-12-04T03:17:20;7.30;;;3.40;;
79574;SDS011;69044;48.198;11.468;2023-12-04T03:19:47;11.35;;;4.40;;
79574;SDS011;69044;48.198;11.468;2023-12-04T03:22:15;10.25;;;3.90;;
79574;SDS011;69044;48.198;11.468;2023-12-04T03:24:42;10.90;;;4.10;;
79574;SDS011;69044;48.198;11.468;2023-12-04T03:27:09;7.63;;;3.83;;
79574;SDS011;69044;48.198;11.468;2023-12-04T03:29:36;10.50;;;4.18;;
79574;SDS011;69044;48.198;11.468;2023-12-04T03:32:04;12.32;;;4.88;;
79574;SDS011;69044;48.198;11.468;2023-12-04T03:34:32;9.20;;;4.63;;
79574;SDS011;69044;48.198;11.468;2023-12-04T03:36:59;12.77;;;4.25;;
79574;SDS011;69044;48.198;11.468;2023-12-04T03:39:27;9.25;;;4.22;;
79574;SDS011;69044;48.198;11.468;2023-12-04T03:41:54;7.55;;;3.97;;
79574;SDS011;69044;48.198;11.468;2023-12-04T03:44:22;7.30;;;3.50;;
79574;SDS011;69044;48.198;11.468;2023-12-04T03:46:49;6.68;;;3.60;;
79574;SDS011;69044;48.198;11.468;2023-12-04T03:49:17;9.75;;;4.40;;
79574;SDS011;69044;48.198;11.468;2023-12-04T03:51:45;9.77;;;4.15;;
79574;SDS011;69044;48.198;11.468;2023-12-04T03:54:13;7.50;;;4.07;;
79574;SDS011;69044;48.198;11.468;2023-12-04T03:56:40;8.88;;;3.92;;
79574;SDS011;69044;48.198;11.468;2023-12-04T03:59:08;7.22;;;3.50;;
79574;SDS011;69044;48.198;11.468;2023-12-04T04:01:35;8.68;;;3.53;;
79574;SDS011;69044;48.198;11.468;2023-12-04T04:04:02;9.68;;;4.45;;
79574;SDS011;69044;48.198;11.468;2023-12-04T04:06:30;8.20;;;3.88;;
79574;SDS011;69044;48.198;11.468;2023-12-04T04:08:58;8.02;;;4.75;;
79574;SDS011;69044;48.198;11.468;2023-12-04T04:11:26;11.27;;;4.10;;
79574;SDS011;69044;48.198;11.468;2023-12-04T04:13:53;5.97;;;3.65;;
79574;SDS011;69044;48.198;11.468;2023-12-04T04:16:20;8.95;;;3.90;;
79574;SDS011;69044;48.198;11.468;2023-12-04T04:18:47;7.18;;;3.53;;
79574;SDS011;69044;48.198;11.468;2023-12-04T04:21:14;8.38;;;3.78;;
79574;SDS011;69044;48.198;11.468;2023-12-04T04:23:41;8.32;;;3.95;;
79574;SDS011;69044;48.198;11.468;2023-12-04T04:26:10;8.07;;;3.85;;
79574;SDS011;69044;48.198;11.468;2023-12-04T04:28:37;8.15;;;3.80;;
79574;SDS011;69044;48.198;11.468;2023-12-04T04:31:04;8.98;;;3.90;;
79574;SDS011;69044;48.198;11.468;2023-12-04T04:33:31;12.52;;;4.15;;
79574;SDS011;69044;48.198;11.468;2023-12-04T04:35:58;9.90;;;4.45;;
79574;SDS011;69044;48.198;11.468;2023-12-04T04:38:26;9.63;;;4.10;;
79574;SDS011;69044;48.198;11.468;2023-12-04T04:40:53;7.78;;;3.80;;
79574;SDS011;69044;48.198;11.468;2023-12-04T04:43:21;11.13;;;3.90;;
79574;SDS011;69044;48.198;11.468;2023-12-04T04:45:48;7.85;;;3.88;;
79574;SDS011;69044;48.198;11.468;2023-12-04T04:48:15;5.93;;;3.17;;
79574;SDS011;69044;48.198;11.468;2023-12-04T04:50:42;12.68;;;3.95;;
79574;SDS011;69044;48.198;11.468;2023-12-04T04:53:10;8.75;;;4.18;;
79574;SDS011;69044;48.198;11.468;2023-12-04T04:55:37;10.98;;;4.05;;
79574;SDS011;69044;48.198;11.468;2023-12-04T04:58:04;6.68;;;3.78;;
79574;SDS011;69044;48.198;11.468;2023-12-04T05:00:33;8.45;;;3.63;;
79574;SDS011;69044;48.198;11.468;2023-12-04T05:03:00;6.53;;;4.00;;
79574;SDS011;69044;48.198;11.468;2023-12-04T05:05:27;9.95;;;4.43;;
79574;SDS011;69044;48.198;11.468;2023-12-04T05:07:54;10.25;;;4.07;;
79574;SDS011;69044;48.198;11.468;2023-12-04T05:10:21;6.75;;;3.28;;
79574;SDS011;69044;48.198;11.468;2023-12-04T05:12:48;6.75;;;3.30;;
79574;SDS011;69044;48.198;11.468;2023-12-04T05:15:15;6.82;;;3.83;;
79574;SDS011;69044;48.198;11.468;2023-12-04T05:17:44;8.95;;;3.97;;
79574;SDS011;69044;48.198;11.468;2023-12-04T05:20:11;9.07;;;3.95;;
79574;SDS011;69044;48.198;11.468;2023-12-04T05:22:38;8.75;;;3.92;;
79574;SDS011;69044;48.198;11.468;2023-12-04T05:25:06;7.05;;;4.25;;
79574;SDS011;69044;48.198;11.468;2023-12-04T05:27:34;7.93;;;4.32;;
79574;SDS011;69044;48.198;11.468;2023-12-04T05:30:01;7.95;;;4.20;;
79574;SDS011;69044;48.198;11.468;2023-12-04T05:32:28;7.45;;;3.50;;
79574;SDS011;69044;48.198;11.468;2023-12-04T05:34:56;7.70;;;3.85;;
79574;SDS011;69044;48.198;11.468;2023-12-04T05:37:24;9.38;;;4.00;;
79574;SDS011;69044;48.198;11.468;2023-12-04T05:39:51;9.48;;;4.00;;
79574;SDS011;69044;48.198;11.468;2023-12-04T05:42:18;7.32;;;3.42;;
79574;SDS011;69044;48.198;11.468;2023-12-04T05:44:45;8.75;;;3.70;;
79574;SDS011;69044;48.198;11.468;2023-12-04T05:47:12;6.68;;;3.65;;
79574;SDS011;69044;48.198;11.468;2023-12-04T05:49:40;7.97;;;2.70;;
79574;SDS011;69044;48.198;11.468;2023-12-04T05:52:08;8.25;;;3.33;;
79574;SDS011;69044;48.198;11.468;2023-12-04T05:54:35;7.70;;;3.80;;
79574;SDS011;69044;48.198;11.468;2023-12-04T05:57:03;10.15;;;3.92;;
79574;SDS011;69044;48.198;11.468;2023-12-04T05:59:30;10.10;;;4.30;;
79574;SDS011;69044;48.198;11.468;2023-12-04T06:01:57;9.73;;;4.25;;
79574;SDS011;69044;48.198;11.468;2023-12-04T06:04:25;9.07;;;4.03;;
79574;SDS011;69044;48.198;11.468;2023-12-04T06:06:52;7.75;;;4.35;;
79574;SDS011;69044;48.198;11.468;2023-12-04T06:09:21;6.13;;;3.25;;
79574;SDS011;69044;48.198;11.468;2023-12-04T06:11:48;9.35;;;4.50;;
79574;SDS011;69044;48.198;11.468;2023-12-04T06:14:15;10.43;;;3.55;;
79574;SDS011;69044;48.198;11.468;2023-12-04T06:16:42;8.15;;;4.30;;
79574;SDS011;69044;48.198;11.468;2023-12-04T06:19:09;7.68;;;3.95;;
79574;SDS011;69044;48.198;11.468;2023-12-04T06:21:36;9.23;;;3.78;;
79574;SDS011;69044;48.198;11.468;2023-12-04T06:24:04;9.38;;;4.45;;
79574;SDS011;69044;48.198;11.468;2023-12-04T06:26:35;8.00;;;3.35;;
79574;SDS011;69044;48.198;11.468;2023-12-04T06:29:03;9.90;;;3.72;;
79574;SDS011;69044;48.198;11.468;2023-12-04T06:31:31;5.13;;;3.08;;
79574;SDS011;69044;48.198;11.468;2023-12-04T06:33:58;6.28;;;3.55;;
79574;SDS011;69044;48.198;11.468;2023-12-04T06:36:26;7.13;;;4.15;;
79574;SDS011;69044;48.198;11.468;2023-12-04T06:38:54;7.25;;;3.05;;
79574;SDS011;69044;48.198;11.468;2023-12-04T06:41:22;9.13;;;3.88;;
79574;SDS011;69044;48.198;11.468;2023-12-04T06:43:51;12.93;;;4.82;;
79574;SDS011;69044;48.198;11.468;2023-12-04T06:46:18;13.50;;;4.38;;
79574;SDS011;69044;48.198;11.468;2023-12-04T06:48:47;11.05;;;4.63;;
79574;SDS011;69044;48.198;11.468;2023-12-04T06:51:15;7.75;;;4.05;;
79574;SDS011;69044;48.198;11.468;2023-12-04T06:53:42;8.02;;;3.70;;
79574;SDS011;69044;48.198;11.468;2023-12-04T06:56:09;5.93;;;3.17;;
79574;SDS011;69044;48.198;11.468;2023-12-04T06:58:36;9.43;;;3.67;;
79574;SDS011;69044;48.198;11.468;2023-12-04T07:01:05;7.88;;;3.88;;
79574;SDS011;69044;48.198;11.468;2023-12-04T07:03:32;6.53;;;3.28;;
79574;SDS011;69044;48.198;11.468;2023-12-04T07:06:00;11.07;;;3.83;;
79574;SDS011;69044;48.198;11.468;2023-12-04T07:08:27;7.20;;;3.60;;
79574;SDS011;69044;48.198;11.468;2023-12-04T07:10:54;11.27;;;4.43;;
79574;SDS011;69044;48.198;11.468;2023-12-04T07:13:21;8.73;;;4.35;;
79574;SDS011;69044;48.198;11.468;2023-12-04T07:15:48;10.23;;;4.47;;
79574;SDS011;69044;48.198;11.468;2023-12-04T07:18:16;12.43;;;3.83;;
79574;SDS011;69044;48.198;11.468;2023-12-04T07:20:47;8.70;;;3.47;;
79574;SDS011;69044;48.198;11.468;2023-12-04T07:23:14;7.53;;;3.45;;
79574;SDS011;69044;48.198;11.468;2023-12-04T07:25:41;9.13;;;4.13;;
79574;SDS011;69044;48.198;11.468;2023-12-04T07:28:07;9.65;;;4.32;;
79574;SDS011;69044;48.198;11.468;2023-12-04T07:30:35;11.07;;;3.88;;
79574;SDS011;69044;48.198;11.468;2023-12-04T07:33:02;10.43;;;4.63;;
79574;SDS011;69044;48.198;11.468;2023-12-04T07:35:30;9.30;;;4.05;;
79574;SDS011;69044;48.198;11.468;2023-12-04T07:37:57;11.30;;;4.88;;
79574;SDS011;69044;48.198;11.468;2023-12-04T07:40:24;8.68;;;4.05;;
79574;SDS011;69044;48.198;11.468;2023-12-04T07:42:52;9.63;;;4.38;;
79574;SDS011;69044;48.198;11.468;2023-12-04T07:45:19;9.32;;;4.53;;
79574;SDS011;69044;48.198;11.468;2023-12-04T07:47:46;9.18;;;3.53;;
79574;SDS011;69044;48.198;11.468;2023-12-04T07:50:14;6.60;;;3.72;;
79574;SDS011;69044;48.198;11.468;2023-12-04T07:52:42;8.57;;;4.93;;
79574;SDS011;69044;48.198;11.468;2023-12-04T07:55:09;8.52;;;3.60;;
79574;SDS011;69044;48.198;11.468;2023-12-04T07:57:36;9.30;;;3.85;;
79574;SDS011;69044;48.198;11.468;2023-12-04T08:00:04;10.30;;;4.28;;
79574;SDS011;69044;48.198;11.468;2023-12-04T08:02:32;8.98;;;4.03;;
79574;SDS011;69044;48.198;11.468;2023-12-04T08:04:59;8.00;;;3.78;;
79574;SDS011;69044;48.198;11.468;2023-12-04T08:07:27;10.07;;;4.10;;
79574;SDS011;69044;48.198;11.468;2023-12-04T08:09:55;7.28;;;4.07;;
79574;SDS011;69044;48.198;11.468;2023-12-04T08:12:22;9.30;;;5.07;;
79574;SDS011;69044;48.198;11.468;2023-12-04T08:14:49;12.77;;;5.45;;
79574;SDS011;69044;48.198;11.468;2023-12-04T08:17:16;13.52;;;5.95;;
79574;SDS011;69044;48.198;11.468;2023-12-04T08:19:44;15.35;;;6.78;;
79574;SDS011;69044;48.198;11.468;2023-12-04T08:22:11;11.90;;;5.03;;
79574;SDS011;69044;48.198;11.468;2023-12-04T08:24:38;11.98;;;4.85;;
79574;SDS011;69044;48.198;11.468;2023-12-04T08:27:06;7.70;;;3.83;;
79574;SDS011;69044;48.198;11.468;2023-12-04T08:29:33;11.65;;;4.55;;
79574;SDS011;69044;48.198;11.468;2023-12-04T08:32:00;9.70;;;4.72;;
79574;SDS011;69044;48.198;11.468;2023-12-04T08:34:28;13.98;;;5.82;;
79574;SDS011;69044;48.198;11.468;2023-12-04T08:36:55;18.33;;;5.80;;
79574;SDS011;69044;48.198;11.468;2023-12-04T08:39:22;8.57;;;4.38;;
79574;SDS011;69044;48.198;11.468;2023-12-04T08:41:49;10.57;;;5.15;;
79574;SDS011;69044;48.198;11.468;2023-12-04T08:44:18;13.93;;;5.93;;
79574;SDS011;69044;48.198;11.468;2023-12-04T08:46:45;15.32;;;5.40;;
79574;SDS011;69044;48.198;11.468;2023-12-04T08:49:12;11.52;;;6.07;;
79574;SDS011;69044;48.198;11.468;2023-12-04T08:51:39;9.02;;;4.80;;
79574;SDS011;69044;48.198;11.468;2023-12-04T08:54:06;9.35;;;4.93;;
79574;SDS011;69044;48.198;11.468;2023-12-04T08:56:33;15.30;;;4.88;;
79574;SDS011;69044;48.198;11.468;2023-12-04T08:59:01;8.32;;;4.25;;
79574;SDS011;69044;48.198;11.468;2023-12-04T09:01:29;9.35;;;5.57;;
79574;SDS011;69044;48.198;11.468;2023-12-04T09:03:56;9.45;;;4.50;;
79574;SDS011;69044;48.198;11.468;2023-12-04T09:06:23;9.63;;;4.72;;
79574;SDS011;69044;48.198;11.468;2023-12-04T09:08:51;9.95;;;4.50;;
79574;SDS011;69044;48.198;11.468;2023-12-04T09:11:18;8.05;;;4.15;;
79574;SDS011;69044;48.198;11.468;2023-12-04T09:13:45;10.48;;;3.88;;
79574;SDS011;69044;48.198;11.468;2023-12-04T09:16:12;11.45;;;5.28;;
79574;SDS011;69044;48.198;11.468;2023-12-04T09:18:41;10.40;;;5.07;;
79574;SDS011;69044;48.198;11.468;2023-12-04T09:21:08;11.68;;;5.32;;
79574;SDS011;69044;48.198;11.468;2023-12-04T09:23:35;9.50;;;4.88;;
79574;SDS011;69044;48.198;11.468;2023-12-04T09:26:03;11.38;;;6.03;;
79574;SDS011;69044;48.198;11.468;2023-12-04T09:28:30;9.50;;;3.95;;
79574;SDS011;69044;48.198;11.468;2023-12-04T09:30:57;11.57;;;6.10;;
79574;SDS011;69044;48.198;11.468;2023-12-04T09:33:25;10.25;;;3.80;;
79574;SDS011;69044;48.198;11.468;2023-12-04T09:35:53;16.40;;;6.47;;
79574;SDS011;69044;48.198;11.468;2023-12-04T09:38:20;8.10;;;4.32;;
79574;SDS011;69044;48.198;11.468;2023-12-04T09:40:48;11.82;;;4.30;;
79574;SDS011;69044;48.198;11.468;2023-12-04T09:43:15;12.45;;;5.43;;
79574;SDS011;69044;48.198;11.468;2023-12-04T09:45:43;11.55;;;5.75;;
79574;SDS011;69044;48.198;11.468;2023-12-04T09:48:10;9.73;;;4.30;;
79574;SDS011;69044;48.198;11.468;2023-12-04T09:50:38;14.13;;;5.90;;
79574;SDS011;69044;48.198;11.468;2023-12-04T09:53:08;10.95;;;4.78;;
79574;SDS011;69044;48.198;11.468;2023-12-04T09:55:36;11.95;;;4.88;;
79574;SDS011;69044;48.198;11.468;2023-12-04T09:58:03;13.73;;;5.43;;
79574;SDS011;69044;48.198;11.468;2023-12-04T10:00:31;11.80;;;5.90;;
79574;SDS011;69044;48.198;11.468;2023-12-04T10:02:58;11.55;;;5.38;;
79574;SDS011;69044;48.198;11.468;2023-12-04T10:05:26;10.20;;;4.72;;
79574;SDS011;69044;48.198;11.468;2023-12-04T10:07:53;8.05;;;4.40;;
79574;SDS011;69044;48.198;11.468;2023-12-04T10:10:21;10.70;;;4.88;;
79574;SDS011;69044;48.198;11.468;2023-12-04T10:12:49;9.45;;;4.30;;
79574;SDS011;69044;48.198;11.468;2023-12-04T10:15:17;11.68;;;5.25;;
79574;SDS011;69044;48.198;11.468;2023-12-04T10:17:44;12.30;;;5.25;;
79574;SDS011;69044;48.198;11.468;2023-12-04T10:20:12;16.10;;;6.18;;
79574;SDS011;69044;48.198;11.468;2023-12-04T10:25:29;10.00;;;4.53;;
79574;SDS011;69044;48.198;11.468;2023-12-04T10:28:06;12.57;;;4.80;;
79574;SDS011;69044;48.198;11.468;2023-12-04T10:30:34;11.38;;;5.00;;
79574;SDS011;69044;48.198;11.468;2023-12-04T10:33:02;11.30;;;4.32;;
79574;SDS011;69044;48.198;11.468;2023-12-04T10:35:31;11.40;;;4.60;;
79574;SDS011;69044;48.198;11.468;2023-12-04T10:37:59;9.43;;;4.28;;
79574;SDS011;69044;48.198;11.468;2023-12-04T10:40:26;9.07;;;4.68;;
79574;SDS011;69044;48.198;11.468;2023-12-04T10:43:09;10.48;;;5.18;;
79574;SDS011;69044;48.198;11.468;2023-12-04T10:45:38;13.00;;;6.45;;
79574;SDS011;69044;48.198;11.468;2023-12-04T10:48:06;14.70;;;6.53;;
79574;SDS011;69044;48.198;11.468;2023-12-04T10:50:33;16.42;;;6.43;;
79574;SDS011;69044;48.198;11.468;2023-12-04T10:53:01;13.13;;;5.97;;
79574;SDS011;69044;48.198;11.468;2023-12-04T10:55:31;14.15;;;6.65;;
79574;SDS011;69044;48.198;11.468;2023-12-04T10:57:59;12.10;;;4.75;;
79574;SDS011;69044;48.198;11.468;2023-12-04T11:00:27;13.13;;;5.95;;
79574;SDS011;69044;48.198;11.468;2023-12-04T11:02:55;15.32;;;6.65;;
79574;SDS011;69044;48.198;11.468;2023-12-04T11:05:23;13.30;;;6.13;;
79574;SDS011;69044;48.198;11.468;2023-12-04T11:07:51;10.73;;;5.60;;
79574;SDS011;69044;48.198;11.468;2023-12-04T11:10:21;14.20;;;5.82;;
79574;SDS011;69044;48.198;11.468;2023-12-04T11:15:21;10.38;;;5.10;;
79574;SDS011;69044;48.198;11.468;2023-12-04T11:20:19;8.45;;;4.00;;
79574;SDS011;69044;48.198;11.468;2023-12-04T11:22:47;8.18;;;4.18;;
79574;SDS011;69044;48.198;11.468;2023-12-04T11:25:16;11.45;;;5.38;;
79574;SDS011;69044;48.198;11.468;2023-12-04T11:27:43;11.90;;;5.13;;
79574;SDS011;69044;48.198;11.468;2023-12-04T11:30:12;11.90;;;5.93;;
79574;SDS011;69044;48.198;11.468;2023-12-04T11:32:43;11.70;;;5.25;;
79574;SDS011;69044;48.198;11.468;2023-12-04T11:35:12;12.88;;;6.32;;
79574;SDS011;69044;48.198;11.468;2023-12-04T11:40:08;11.00;;;5.63;;
79574;SDS011;69044;48.198;11.468;2023-12-04T11:42:38;11.70;;;5.68;;
79574;SDS011;69044;48.198;11.468;2023-12-04T11:45:06;13.38;;;5.43;;
79574;SDS011;69044;48.198;11.468;2023-12-04T11:50:21;13.77;;;6.65;;
79574;SDS011;69044;48.198;11.468;2023-12-04T11:52:48;16.88;;;6.25;;
79574;SDS011;69044;48.198;11.468;2023-12-04T11:55:16;15.18;;;7.20;;
79574;SDS011;69044;48.198;11.468;2023-12-04T11:57:43;11.20;;;5.90;;
79574;SDS011;69044;48.198;11.468;2023-12-04T12:00:12;13.77;;;5.57;;
79574;SDS011;69044;48.198;11.468;2023-12-04T12:02:46;12.65;;;6.15;;
79574;SDS011;69044;48.198;11.468;2023-12-04T12:05:15;14.65;;;7.47;;
79574;SDS011;69044;48.198;11.468;2023-12-04T12:07:43;15.98;;;7.07;;
79574;SDS011;69044;48.198;11.468;2023-12-04T12:10:11;16.52;;;5.90;;
79574;SDS011;69044;48.198;11.468;2023-12-04T12:12:39;16.13;;;7.10;;
79574;SDS011;69044;48.198;11.468;2023-12-04T12:15:08;12.60;;;5.85;;
79574;SDS011;69044;48.198;11.468;2023-12-04T12:17:37;16.17;;;5.90;;
79574;SDS011;69044;48.198;11.468;2023-12-04T12:20:05;9.45;;;4.78;;
79574;SDS011;69044;48.198;11.468;2023-12-04T12:22:34;14.32;;;6.00;;
79574;SDS011;69044;48.198;11.468;2023-12-04T12:25:03;14.27;;;6.03;;
79574;SDS011;69044;48.198;11.468;2023-12-04T12:27:32;12.07;;;6.57;;
79574;SDS011;69044;48.198;11.468;2023-12-04T12:29:59;12.00;;;6.18;;
79574;SDS011;69044;48.198;11.468;2023-12-04T12:32:26;14.50;;;6.60;;
79574;SDS011;69044;48.198;11.468;2023-12-04T12:34:53;16.02;;;6.65;;
79574;SDS011;69044;48.198;11.468;2023-12-04T12:37:21;14.65;;;6.78;;
79574;SDS011;69044;48.198;11.468;2023-12-04T12:39:49;11.43;;;5.70;;
79574;SDS011;69044;48.198;11.468;2023-12-04T12:42:20;13.60;;;6.22;;
79574;SDS011;69044;48.198;11.468;2023-12-04T12:44:48;10.05;;;4.95;;
79574;SDS011;69044;48.198;11.468;2023-12-04T12:47:15;15.70;;;6.32;;
79574;SDS011;69044;48.198;11.468;2023-12-04T12:49:43;13.40;;;5.75;;
79574;SDS011;69044;48.198;11.468;2023-12-04T12:52:10;13.05;;;6.15;;
79574;SDS011;69044;48.198;11.468;2023-12-04T12:54:38;12.77;;;5.93;;
79574;SDS011;69044;48.198;11.468;2023-12-04T12:57:06;14.35;;;6.65;;
79574;SDS011;69044;48.198;11.468;2023-12-04T12:59:34;12.57;;;5.80;;
79574;SDS011;69044;48.198;11.468;2023-12-04T13:02:01;16.13;;;6.80;;
79574;SDS011;69044;48.198;11.468;2023-12-04T13:04:33;16.88;;;7.40;;
79574;SDS011;69044;48.198;11.468;2023-12-04T13:07:01;14.75;;;6.22;;
79574;SDS011;69044;48.198;11.468;2023-12-04T13:09:28;14.30;;;6.22;;
79574;SDS011;69044;48.198;11.468;2023-12-04T13:11:55;15.35;;;7.10;;
79574;SDS011;69044;48.198;11.468;2023-12-04T13:14:24;16.15;;;6.28;;
79574;SDS011;69044;48.198;11.468;2023-12-04T13:16:51;11.60;;;5.97;;
79574;SDS011;69044;48.198;11.468;2023-12-04T13:19:20;13.65;;;6.30;;
79574;SDS011;69044;48.198;11.468;2023-12-04T13:21:47;15.27;;;6.35;;
79574;SDS011;69044;48.198;11.468;2023-12-04T13:24:14;13.85;;;6.57;;
79574;SDS011;69044;48.198;11.468;2023-12-04T13:26:42;12.57;;;5.25;;
79574;SDS011;69044;48.198;11.468;2023-12-04T13:29:10;10.57;;;5.57;;
79574;SDS011;69044;48.198;11.468;2023-12-04T13:31:38;15.10;;;6.05;;
79574;SDS011;69044;48.198;11.468;2023-12-04T13:34:05;17.55;;;7.30;;
79574;SDS011;69044;48.198;11.468;2023-12-04T13:36:46;13.65;;;6.70;;
79574;SDS011;69044;48.198;11.468;2023-12-04T13:39:14;15.65;;;6.53;;
79574;SDS011;69044;48.198;11.468;2023-12-04T13:41:45;13.82;;;6.40;;
79574;SDS011;69044;48.198;11.468;2023-12-04T13:44:30;14.00;;;7.28;;
79574;SDS011;69044;48.198;11.468;2023-12-04T13:46:59;19.20;;;7.55;;
79574;SDS011;69044;48.198;11.468;2023-12-04T13:49:26;16.10;;;7.18;;
79574;SDS011;69044;48.198;11.468;2023-12-04T13:51:54;12.55;;;5.30;;
79574;SDS011;69044;48.198;11.468;2023-12-04T13:54:23;17.83;;;7.68;;
79574;SDS011;69044;48.198;11.468;2023-12-04T13:57:01;15.82;;;6.72;;
79574;SDS011;69044;48.198;11.468;2023-12-04T13:59:29;13.63;;;6.75;;
79574;SDS011;69044;48.198;11.468;2023-12-04T14:01:59;14.38;;;6.35;;
79574;SDS011;69044;48.198;11.468;2023-12-04T14:04:30;17.25;;;7.18;;
79574;SDS011;69044;48.198;11.468;2023-12-04T14:06:58;14.68;;;7.05;;
79574;SDS011;69044;48.198;11.468;2023-12-04T14:09:25;17.63;;;7.43;;
79574;SDS011;69044;48.198;11.468;2023-12-04T14:11:52;17.00;;;8.02;;
79574;SDS011;69044;48.198;11.468;2023-12-04T14:14:20;12.98;;;6.63;;
79574;SDS011;69044;48.198;11.468;2023-12-04T14:16:47;18.17;;;7.68;;
79574;SDS011;69044;48.198;11.468;2023-12-04T14:19:14;15.10;;;7.55;;
79574;SDS011;69044;48.198;11.468;2023-12-04T14:21:43;17.42;;;7.47;;
79574;SDS011;69044;48.198;11.468;2023-12-04T14:24:11;14.32;;;6.88;;
79574;SDS011;69044;48.198;11.468;2023-12-04T14:26:39;14.60;;;6.32;;
79574;SDS011;69044;48.198;11.468;2023-12-04T14:29:06;11.90;;;6.53;;
79574;SDS011;69044;48.198;11.468;2023-12-04T14:31:33;16.42;;;6.75;;
79574;SDS011;69044;48.198;11.468;2023-12-04T14:34:01;15.43;;;6.07;;
79574;SDS011;69044;48.198;11.468;2023-12-04T14:36:29;14.35;;;7.13;;
79574;SDS011;69044;48.198;11.468;2023-12-04T14:38:57;15.02;;;6.95;;
79574;SDS011;69044;48.198;11.468;2023-12-04T14:41:26;14.30;;;6.20;;
79574;SDS011;69044;48.198;11.468;2023-12-04T14:43:53;13.80;;;6.35;;